Time;durP1;ratioP1;P1;durP2;ratioP2;P2;SDS_P1;SDS_P2;PMS_P1;PMS_P2;Temp;Humidity;BMP_temperature;BMP_pressure;BME280_temperature;BME280_humidity;BME280_pressure;Samples;Min_cycle;Max_cycle;Signal;HPM_P1;HPM_P2
2022/11/14 00:02:27;;;;;;;22.85;12.65;;;;;;;15.83;100.00;101429.34;4981827;28;20042;-52
2022/11/14 00:05:12;;;;;;;21.10;12.23;;;;;;;15.77;100.00;101419.44;4986620;28;20077;-55
2022/11/14 00:07:57;;;;;;;23.63;12.20;;;;;;;15.83;100.00;101423.94;4988141;28;20038;-53
2022/11/14 00:10:41;;;;;;;20.10;10.77;;;;;;;15.39;100.00;101422.91;4989536;28;20042;-53
2022/11/14 00:13:25;;;;;;;21.30;12.05;;;;;;;15.04;100.00;101416.81;4989588;28;20100;-54
2022/11/14 00:16:10;;;;;;;21.02;11.48;;;;;;;15.11;100.00;101416.81;4986940;28;20042;-53
2022/11/14 00:18:54;;;;;;;26.20;12.80;;;;;;;15.43;100.00;101421.44;4989262;28;20072;-50
2022/11/14 00:21:38;;;;;;;22.85;11.93;;;;;;;15.72;100.00;101413.88;4988489;28;20053;-54
2022/11/14 00:24:22;;;;;;;21.17;11.80;;;;;;;15.25;100.00;101420.28;4992564;28;20042;-53
2022/11/14 00:27:06;;;;;;;22.13;11.45;;;;;;;15.38;100.00;101415.88;4990278;28;20050;-56
2022/11/14 00:29:51;;;;;;;25.25;12.00;;;;;;;14.91;100.00;101417.69;4989218;28;20083;-54
2022/11/14 00:32:36;;;;;;;21.15;11.77;;;;;;;14.72;100.00;101413.97;4987602;28;20038;-54
2022/11/14 00:35:20;;;;;;;22.25;12.00;;;;;;;14.93;100.00;101411.25;4990642;28;20062;-52
2022/11/14 00:38:04;;;;;;;25.50;12.90;;;;;;;15.75;100.00;101413.44;4989868;28;20046;-51
2022/11/14 00:40:49;;;;;;;25.80;12.10;;;;;;;14.45;100.00;101405.88;4989679;28;20057;-54
2022/11/14 00:43:33;;;;;;;21.17;12.13;;;;;;;15.98;97.76;101404.00;4989061;28;20101;-53
2022/11/14 00:46:17;;;;;;;23.98;12.30;;;;;;;15.81;98.18;101409.06;4993226;28;20115;-51
2022/11/14 00:49:01;;;;;;;23.23;12.60;;;;;;;15.20;100.00;101409.28;4990943;28;20050;-51
2022/11/14 00:51:45;;;;;;;27.55;13.82;;;;;;;14.92;100.00;101405.03;4992128;28;20078;-56
2022/11/14 00:54:30;;;;;;;27.38;13.73;;;;;;;15.01;100.00;101398.41;4952281;28;20062;-51
2022/11/14 00:57:14;;;;;;;26.38;13.55;;;;;;;15.69;99.23;101400.81;4953622;29;20114;-50
2022/11/14 00:59:58;;;;;;;29.42;13.43;;;;;;;15.76;97.23;101396.22;4952232;29;20114;-50
2022/11/14 01:02:42;;;;;;;25.20;13.45;;;;;;;15.52;99.56;101403.16;4953191;29;20078;-50
2022/11/14 01:05:27;;;;;;;31.48;15.20;;;;;;;14.31;100.00;101386.22;4952005;29;20841;-51
2022/11/14 01:08:12;;;;;;;26.40;13.70;;;;;;;14.36;100.00;101382.09;4950766;29;20066;-50
2022/11/14 01:10:56;;;;;;;32.85;15.05;;;;;;;14.70;100.00;101377.50;4952134;29;20074;-54
2022/11/14 01:13:40;;;;;;;34.63;16.33;;;;;;;14.69;100.00;101373.97;4949214;29;20099;-52
2022/11/14 01:16:24;;;;;;;33.58;14.75;;;;;;;15.47;100.00;101377.69;4950877;29;20061;-52
2022/11/14 01:19:08;;;;;;;31.98;16.42;;;;;;;14.71;100.00;101363.84;4953128;29;20047;-51
2022/11/14 01:21:53;;;;;;;34.25;15.73;;;;;;;14.40;100.00;101359.09;4950797;29;20113;-53
2022/11/14 01:24:36;;;;;;;32.97;16.27;;;;;;;14.19;100.00;101355.63;4949128;29;20027;-51
2022/11/14 01:27:20;;;;;;;28.17;15.60;;;;;;;14.01;100.00;101350.81;4951448;29;20046;-53
2022/11/14 01:30:05;;;;;;;41.35;18.05;;;;;;;14.27;100.00;101347.31;4952800;29;20058;-53
2022/11/14 01:32:49;;;;;;;37.90;16.58;;;;;;;14.12;100.00;101339.47;4950964;29;20051;-51
2022/11/14 01:35:35;;;;;;;38.03;16.85;;;;;;;13.78;100.00;101343.97;4951982;29;20108;-51
2022/11/14 01:38:20;;;;;;;39.20;18.10;;;;;;;14.10;100.00;101335.31;4951721;29;20070;-53
2022/11/14 01:41:05;;;;;;;35.92;16.98;;;;;;;13.89;100.00;101335.31;4951923;28;20051;-49
2022/11/14 01:43:50;;;;;;;36.25;18.13;;;;;;;14.54;100.00;101338.41;4951701;29;20100;-47
2022/11/14 01:46:39;;;;;;;34.50;18.20;;;;;;;14.00;100.00;101319.59;4949496;29;20107;-52
2022/11/14 01:49:37;;;;;;;35.35;18.88;;;;;;;13.89;100.00;101310.28;4950160;29;20125;-53
2022/11/14 01:52:29;;;;;;;39.15;18.27;;;;;;;13.91;100.00;101311.75;4957348;28;20115;-49
2022/11/14 01:55:14;;;;;;;36.40;17.10;;;;;;;13.79;100.00;101309.88;4987743;28;20041;-54
2022/11/14 01:57:59;;;;;;;38.35;17.90;;;;;;;13.50;100.00;101301.97;4990180;28;20057;-50
2022/11/14 02:00:44;;;;;;;42.05;19.38;;;;;;;13.76;100.00;101311.09;4989969;28;20109;-52
2022/11/14 02:03:28;;;;;;;40.72;19.45;;;;;;;13.85;100.00;101309.03;4988733;28;20049;-49
2022/11/14 02:06:15;;;;;;;38.35;19.10;;;;;;;13.62;100.00;101292.28;4988850;28;20045;-53
2022/11/14 02:09:03;;;;;;;39.13;18.75;;;;;;;13.45;100.00;101297.19;4990295;28;20042;-47
2022/11/14 02:11:50;;;;;;;42.17;20.42;;;;;;;13.52;100.00;101286.47;4989358;28;20081;-51
2022/11/14 02:14:36;;;;;;;44.17;19.55;;;;;;;13.16;100.00;101287.59;4989753;28;20050;-52
2022/11/14 02:17:21;;;;;;;41.95;19.10;;;;;;;13.41;100.00;101292.41;4991068;28;20045;-51
2022/11/14 02:20:14;;;;;;;41.83;20.75;;;;;;;13.18;100.00;101280.16;4990169;28;20064;-49
2022/11/14 02:22:58;;;;;;;45.58;21.05;;;;;;;13.22;100.00;101286.78;4988419;28;20046;-52
2022/11/14 02:25:42;;;;;;;45.72;20.85;;;;;;;13.52;100.00;101278.41;4987833;28;20072;-54
2022/11/14 02:28:27;;;;;;;50.42;22.13;;;;;;;12.93;100.00;101278.00;4988171;28;20057;-50
2022/11/14 02:31:12;;;;;;;46.00;20.50;;;;;;;12.98;100.00;101272.88;4989722;28;20096;-48
2022/11/14 02:33:57;;;;;;;45.88;21.33;;;;;;;12.65;100.00;101270.03;4990023;28;20038;-52
2022/11/14 02:36:41;;;;;;;45.15;21.15;;;;;;;12.60;100.00;101273.31;4989547;28;20045;-48
2022/11/14 02:39:25;;;;;;;46.10;20.83;;;;;;;12.58;100.00;101253.91;4987757;28;20080;-52
2022/11/14 02:42:09;;;;;;;49.45;20.75;;;;;;;12.56;100.00;101267.50;4989804;28;20078;-52
2022/11/14 02:44:53;;;;;;;47.47;20.70;;;;;;;12.62;100.00;101268.56;4988420;28;20045;-53
2022/11/14 02:47:38;;;;;;;50.50;21.25;;;;;;;13.22;100.00;101270.66;4989234;28;20122;-53
2022/11/14 02:50:22;;;;;;;48.72;21.83;;;;;;;13.11;100.00;101266.72;4989787;28;20057;-51
2022/11/14 02:53:06;;;;;;;53.55;22.17;;;;;;;13.36;100.00;101265.31;4965769;28;20070;-50
2022/11/14 02:55:51;;;;;;;50.28;22.27;;;;;;;13.50;100.00;101261.66;4953135;29;20066;-52
2022/11/14 02:58:35;;;;;;;51.08;23.63;;;;;;;13.16;100.00;101260.75;4949336;29;20076;-49
2022/11/14 03:01:19;;;;;;;52.83;22.98;;;;;;;13.67;100.00;101261.28;4951804;29;20081;-49
2022/11/14 03:04:03;;;;;;;49.67;23.13;;;;;;;13.48;100.00;101250.28;4949416;29;20045;-53
2022/11/14 03:06:47;;;;;;;56.05;25.10;;;;;;;13.12;100.00;101254.09;4948545;29;20054;-53
2022/11/14 03:09:31;;;;;;;52.10;23.52;;;;;;;13.08;100.00;101259.06;4947403;29;20035;-50
2022/11/14 03:12:17;;;;;;;52.90;23.70;;;;;;;13.26;100.00;101254.97;4951478;29;20078;-53
2022/11/14 03:15:02;;;;;;;60.50;25.00;;;;;;;11.76;100.00;101246.28;4951461;29;20074;-52
2022/11/14 03:17:46;;;;;;;61.47;27.08;;;;;;;12.56;100.00;101255.94;4949909;29;20042;-48
2022/11/14 03:20:30;;;;;;;56.40;24.10;;;;;;;12.54;100.00;101250.78;4948984;29;20078;-52
2022/11/14 03:23:14;;;;;;;56.67;25.48;;;;;;;12.59;100.00;101250.19;4950751;29;20075;-50
2022/11/14 03:26:01;;;;;;;56.08;25.63;;;;;;;12.21;100.00;101245.22;4949245;29;20050;-51
2022/11/14 03:28:45;;;;;;;58.08;25.35;;;;;;;12.24;100.00;101236.78;4948280;29;20059;-51
2022/11/14 03:31:29;;;;;;;55.65;24.20;;;;;;;12.16;100.00;101241.28;4950877;29;20051;-51
2022/11/14 03:34:13;;;;;;;56.88;24.70;;;;;;;12.33;100.00;101232.91;4949891;29;20050;-53
2022/11/14 03:36:57;;;;;;;51.38;24.00;;;;;;;12.85;100.00;101229.84;4948636;29;20051;-56
2022/11/14 03:39:41;;;;;;;60.10;25.02;;;;;;;12.45;100.00;101217.09;4950768;29;20101;-53
2022/11/14 03:42:25;;;;;;;56.17;23.27;;;;;;;12.52;100.00;101223.31;4951030;29;20078;-50
2022/11/14 03:45:09;;;;;;;62.55;25.55;;;;;;;12.65;100.00;101214.50;4948237;29;20963;-51
2022/11/14 03:47:53;;;;;;;62.65;25.23;;;;;;;13.71;100.00;101223.00;4946206;28;20082;-49
2022/11/14 03:50:37;;;;;;;52.50;22.73;;;;;;;12.67;100.00;101219.69;4949777;29;20078;-49
2022/11/14 03:53:22;;;;;;;56.83;25.52;;;;;;;12.70;100.00;101220.13;4970505;28;20093;-51
2022/11/14 03:56:06;;;;;;;53.28;24.08;;;;;;;12.31;100.00;101221.56;4986919;28;20073;-51
2022/11/14 03:58:50;;;;;;;51.28;21.80;;;;;;;12.16;100.00;101214.47;4989373;28;20054;-53
2022/11/14 04:01:34;;;;;;;57.08;22.75;;;;;;;12.19;100.00;101213.25;4990293;28;20081;-54
2022/11/14 04:04:18;;;;;;;55.83;23.42;;;;;;;12.17;100.00;101213.44;4987042;28;20045;-53
2022/11/14 04:07:02;;;;;;;58.30;22.85;;;;;;;11.50;100.00;101204.84;4990198;28;20081;-49
2022/11/14 04:09:46;;;;;;;50.50;21.45;;;;;;;11.38;100.00;101198.38;4988138;28;20050;-50
2022/11/14 04:12:30;;;;;;;53.20;22.67;;;;;;;11.31;100.00;101203.66;4987777;28;20057;-49
2022/11/14 04:15:16;;;;;;;57.00;23.33;;;;;;;11.30;100.00;101204.69;4989491;28;20081;-52
2022/11/14 04:18:00;;;;;;;59.60;23.17;;;;;;;11.45;100.00;101205.47;4982793;28;20045;-53
2022/11/14 04:20:44;;;;;;;59.00;22.45;;;;;;;11.61;100.00;101206.19;4983575;28;20081;-51
2022/11/14 04:23:28;;;;;;;55.92;22.55;;;;;;;11.61;100.00;101201.69;4987687;28;20046;-51
2022/11/14 04:26:12;;;;;;;47.65;21.65;;;;;;;11.56;100.00;101206.78;4990112;28;20050;-50
2022/11/14 04:28:56;;;;;;;56.58;22.98;;;;;;;11.58;100.00;101207.41;4985294;28;20049;-50
2022/11/14 04:31:40;;;;;;;60.05;24.10;;;;;;;11.55;100.00;101199.78;4986083;28;20072;-50
2022/11/14 04:34:24;;;;;;;58.10;22.77;;;;;;;11.82;100.00;101199.97;4990081;28;20057;-54
2022/11/14 04:37:08;;;;;;;56.20;24.08;;;;;;;11.25;100.00;101189.19;4990370;28;20057;-53
2022/11/14 04:39:57;;;;;;;55.08;22.05;;;;;;;11.91;100.00;101190.75;4982066;28;20058;-50
2022/11/14 04:42:41;;;;;;;55.22;23.70;;;;;;;11.53;100.00;101188.41;4987494;28;20080;-51
2022/11/14 04:45:26;;;;;;;57.03;22.80;;;;;;;11.69;100.00;101178.44;4983913;28;20073;-50
2022/11/14 04:48:11;;;;;;;59.22;24.38;;;;;;;11.59;100.00;101178.78;4984488;28;20080;-51
2022/11/14 04:50:55;;;;;;;50.67;22.08;;;;;;;11.56;100.00;101168.44;4987438;28;20069;-52
2022/11/14 04:53:40;;;;;;;50.42;22.58;;;;;;;11.19;100.00;101165.88;4990658;28;20058;-53
2022/11/14 04:56:24;;;;;;;57.58;23.98;;;;;;;11.35;100.00;101164.75;4987029;28;20062;-49
2022/11/14 04:59:08;;;;;;;57.60;23.23;;;;;;;11.21;100.00;101163.00;4987383;28;20072;-51
2022/11/14 05:01:52;;;;;;;55.70;23.83;;;;;;;11.06;100.00;101161.22;4985745;28;20064;-49
2022/11/14 05:04:36;;;;;;;57.45;23.67;;;;;;;10.98;100.00;101169.38;4988483;28;20072;-54
2022/11/14 05:07:20;;;;;;;52.25;24.40;;;;;;;10.94;100.00;101168.91;4992042;28;20049;-53
2022/11/14 05:10:05;;;;;;;51.50;22.27;;;;;;;11.21;100.00;101163.00;4993491;28;20049;-49
2022/11/14 05:12:54;;;;;;;54.00;22.52;;;;;;;11.60;100.00;101167.03;4986873;28;20045;-53
2022/11/14 05:15:38;;;;;;;53.35;22.42;;;;;;;11.39;100.00;101165.22;4991383;28;20050;-52
2022/11/14 05:18:22;;;;;;;52.40;21.05;;;;;;;11.50;100.00;101162.00;4987053;28;20050;-50
2022/11/14 05:21:12;;;;;;;54.35;23.35;;;;;;;11.27;100.00;101156.88;4987389;28;20053;-51
2022/11/14 05:23:57;;;;;;;63.70;23.25;;;;;;;10.94;100.00;101152.00;4992913;28;20073;-49
2022/11/14 05:26:41;;;;;;;50.85;21.83;;;;;;;11.70;100.00;101151.47;4993234;28;20042;-53
2022/11/14 05:29:26;;;;;;;50.25;20.60;;;;;;;11.42;100.00;101148.75;4993472;28;20042;-52
2022/11/14 05:32:11;;;;;;;49.50;21.73;;;;;;;11.44;100.00;101152.91;4993572;28;20053;-53
2022/11/14 05:34:55;;;;;;;49.53;20.42;;;;;;;11.41;100.00;101145.25;4991039;28;20093;-52
2022/11/14 05:37:39;;;;;;;56.97;23.60;;;;;;;11.41;100.00;101144.44;4984383;28;20049;-49
2022/11/14 05:40:23;;;;;;;56.05;23.08;;;;;;;11.49;100.00;101144.28;4986700;28;20046;-51
2022/11/14 05:43:07;;;;;;;54.00;22.58;;;;;;;11.44;100.00;101144.03;4993120;28;20076;-51
2022/11/14 05:45:52;;;;;;;51.30;21.50;;;;;;;11.21;100.00;101136.25;4987184;28;20046;-48
2022/11/14 05:48:36;;;;;;;50.53;22.63;;;;;;;11.28;100.00;101124.53;4987042;28;20058;-51
2022/11/14 05:51:20;;;;;;;58.78;22.23;;;;;;;11.48;100.00;101121.19;4985411;28;20049;-49
2022/11/14 05:54:05;;;;;;;48.78;21.05;;;;;;;10.41;100.00;101118.31;4989534;28;20061;-52
2022/11/14 05:56:50;;;;;;;57.72;21.58;;;;;;;10.10;100.00;101122.84;4984566;28;20046;-52
2022/11/14 05:59:34;;;;;;;57.10;21.58;;;;;;;10.43;100.00;101122.47;4989573;28;20046;-51
2022/11/14 06:02:19;;;;;;;43.88;19.65;;;;;;;11.38;100.00;101118.03;4987306;28;20069;-51
2022/11/14 06:05:03;;;;;;;55.15;21.85;;;;;;;11.85;100.00;101127.22;4991054;28;20068;-52
2022/11/14 06:07:55;;;;;;;52.03;21.55;;;;;;;11.21;100.00;101121.00;4990804;28;20046;-49
2022/11/14 06:10:39;;;;;;;49.88;20.70;;;;;;;10.80;100.00;101124.28;4985902;28;20046;-50
2022/11/14 06:13:23;;;;;;;48.83;21.02;;;;;;;12.16;100.00;101125.16;4989992;28;20104;-53
2022/11/14 06:16:16;;;;;;;54.22;21.67;;;;;;;10.78;100.00;101129.00;4992117;28;20092;-50
2022/11/14 06:19:00;;;;;;;48.35;21.25;;;;;;;11.17;100.00;101127.75;4986947;28;20042;-53
2022/11/14 06:21:45;;;;;;;49.65;20.23;;;;;;;10.65;100.00;101116.31;4984315;28;20068;-52
2022/11/14 06:24:30;;;;;;;51.85;21.48;;;;;;;10.69;100.00;101126.47;4985635;28;20074;-51
2022/11/14 06:27:14;;;;;;;47.22;19.95;;;;;;;10.61;100.00;101130.06;4990235;28;20045;-52
2022/11/14 06:29:58;;;;;;;50.75;20.63;;;;;;;10.88;100.00;101130.34;4984965;28;20068;-51
2022/11/14 06:32:42;;;;;;;50.28;20.52;;;;;;;11.06;100.00;101131.78;4981895;28;20114;-49
2022/11/14 06:35:27;;;;;;;49.67;20.70;;;;;;;10.85;100.00;101132.59;4985309;28;20046;-51
2022/11/14 06:38:12;;;;;;;46.25;18.70;;;;;;;10.83;100.00;101134.63;4987683;28;20054;-54
2022/11/14 06:41:12;;;;;;;59.00;22.20;;;;;;;10.70;100.00;101138.81;4992175;28;20083;-53
2022/11/14 06:43:57;;;;;;;46.30;19.90;;;;;;;10.58;100.00;101134.97;4992187;28;20084;-53
2022/11/14 06:46:41;;;;;;;55.72;21.27;;;;;;;10.58;100.00;101132.28;4982532;28;20111;-51
2022/11/14 06:49:26;;;;;;;54.25;20.88;;;;;;;9.94;100.00;101136.41;4988212;28;20103;-51
2022/11/14 06:52:11;;;;;;;52.38;19.70;;;;;;;9.63;100.00;101140.88;4988096;28;20110;-53
2022/11/14 06:54:57;;;;;;;50.42;19.85;;;;;;;9.81;100.00;101140.53;4989255;28;20053;-53
2022/11/14 06:57:41;;;;;;;45.22;19.08;;;;;;;10.45;100.00;101136.47;4988965;28;20068;-50
2022/11/14 07:00:26;;;;;;;41.00;18.35;;;;;;;10.33;100.00;101129.91;4988572;28;20528;-50
2022/11/14 07:03:11;;;;;;;49.83;19.55;;;;;;;10.46;100.00;101135.47;4991659;28;20054;-51
2022/11/14 07:06:03;;;;;;;45.53;19.67;;;;;;;10.16;100.00;101140.81;4989494;28;20053;-51
2022/11/14 07:08:48;;;;;;;56.85;21.42;;;;;;;10.22;100.00;101143.75;4988136;28;20114;-55
2022/11/14 07:11:34;;;;;;;47.40;19.45;;;;;;;10.16;100.00;101143.50;4983338;28;20130;-51
2022/11/14 07:14:17;;;;;;;55.28;19.13;;;;;;;10.07;100.00;101144.59;4986046;28;20121;-51
2022/11/14 07:17:02;;;;;;;53.55;21.25;;;;;;;10.32;100.00;101146.97;4983474;28;20057;-54
2022/11/14 07:19:46;;;;;;;56.50;21.42;;;;;;;10.24;100.00;101136.38;4985993;28;20068;-53
2022/11/14 07:22:30;;;;;;;44.70;21.58;;;;;;;10.41;100.00;101137.88;5001502;28;20041;-53
2022/11/14 07:25:14;;;;;;;53.03;21.27;;;;;;;10.53;100.00;101134.69;4983411;28;20107;-53
2022/11/14 07:27:58;;;;;;;54.85;20.80;;;;;;;10.60;100.00;101130.25;4988701;28;20050;-53
2022/11/14 07:30:42;;;;;;;49.00;19.85;;;;;;;9.68;100.00;101132.31;4987050;28;20069;-53
2022/11/14 07:33:26;;;;;;;41.00;18.38;;;;;;;10.73;100.00;101134.94;4989805;28;20045;-51
2022/11/14 07:36:12;;;;;;;56.22;20.58;;;;;;;10.64;100.00;101150.28;4987470;28;20042;-50
2022/11/14 07:38:56;;;;;;;50.00;19.45;;;;;;;9.84;100.00;101156.19;4986087;28;20066;-51
2022/11/14 07:41:40;;;;;;;71.25;20.95;;;;;;;9.63;100.00;101150.72;4985457;28;20069;-53
2022/11/14 07:44:25;;;;;;;53.55;20.15;;;;;;;10.11;100.00;101148.53;4985635;28;20140;-52
2022/11/14 07:47:09;;;;;;;83.32;22.17;;;;;;;10.11;100.00;101145.88;4985441;28;20075;-49
2022/11/14 07:49:53;;;;;;;59.42;19.65;;;;;;;10.16;100.00;101143.50;4984441;28;20050;-54
2022/11/14 07:52:38;;;;;;;73.13;19.30;;;;;;;10.25;100.00;101138.84;4987942;28;20076;-50
2022/11/14 07:55:22;;;;;;;46.15;17.35;;;;;;;10.76;100.00;101127.34;4987233;28;20100;-52
2022/11/14 07:58:07;;;;;;;37.58;16.02;;;;;;;10.82;100.00;101124.94;4986529;28;20123;-50
2022/11/14 08:00:52;;;;;;;37.05;17.17;;;;;;;11.05;100.00;101128.25;4990857;28;20081;-51
2022/11/14 08:03:36;;;;;;;35.95;17.17;;;;;;;11.33;100.00;101123.97;4986279;28;20046;-53
2022/11/14 08:06:20;;;;;;;37.95;16.95;;;;;;;11.09;100.00;101115.31;4987412;28;20065;-54
2022/11/14 08:09:05;;;;;;;35.85;16.25;;;;;;;10.80;100.00;101108.25;4984195;28;20050;-52
2022/11/14 08:11:49;;;;;;;37.08;16.10;;;;;;;10.75;100.00;101108.84;4986079;28;20073;-52
2022/11/14 08:14:34;;;;;;;36.33;17.23;;;;;;;10.72;100.00;101106.50;4986208;28;20070;-51
2022/11/14 08:17:20;;;;;;;41.13;16.05;;;;;;;10.86;100.00;101113.66;4985498;28;20125;-51
2022/11/14 08:20:06;;;;;;;38.03;16.83;;;;;;;10.47;100.00;101104.19;4987975;28;20042;-46
2022/11/14 08:23:01;;;;;;;39.95;16.73;;;;;;;10.74;100.00;101116.00;4990630;28;20054;-49
2022/11/14 08:25:46;;;;;;;44.85;18.90;;;;;;;10.76;100.00;101119.31;4986968;28;20053;-54
2022/11/14 08:28:29;;;;;;;37.95;18.67;;;;;;;10.78;100.00;101116.47;4989747;28;20069;-52
2022/11/14 08:31:14;;;;;;;35.97;17.23;;;;;;;10.63;100.00;101115.69;4988006;28;20121;-52
2022/11/14 08:33:58;;;;;;;37.90;16.90;;;;;;;10.66;100.00;101113.47;4992118;28;20106;-48
2022/11/14 08:36:42;;;;;;;40.58;16.70;;;;;;;10.88;100.00;101095.56;4987812;28;20053;-49
2022/11/14 08:39:26;;;;;;;53.92;18.38;;;;;;;10.72;100.00;101099.34;4990830;28;20054;-51
2022/11/14 08:42:10;;;;;;;54.13;17.58;;;;;;;11.13;100.00;101102.41;4989169;28;20058;-54
2022/11/14 08:44:54;;;;;;;36.75;14.82;;;;;;;11.79;100.00;101105.75;4986450;28;20054;-51
2022/11/14 08:47:39;;;;;;;33.80;15.27;;;;;;;13.37;100.00;101108.47;4990968;28;20045;-52
2022/11/14 08:50:23;;;;;;;28.15;14.55;;;;;;;14.58;100.00;101105.50;4989531;28;23628;-63
2022/11/14 08:53:07;;;;;;;26.80;13.77;;;;;;;15.47;98.54;101102.78;4990124;28;20062;-63
2022/11/14 08:55:53;;;;;;;29.70;13.07;;;;;;;16.42;90.00;101105.28;5001979;28;20050;-62
2022/11/14 08:58:38;;;;;;;29.97;13.33;;;;;;;16.75;86.45;101105.88;4995265;28;20065;-64
2022/11/14 09:01:22;;;;;;;26.33;13.20;;;;;;;17.43;82.41;101113.75;4992860;28;20279;-64
2022/11/14 09:04:07;;;;;;;24.20;12.00;;;;;;;17.98;77.43;101117.09;4993391;28;20329;-64
2022/11/14 09:06:52;;;;;;;22.53;11.63;;;;;;;18.46;73.85;101105.13;4988124;28;20268;-63
2022/11/14 09:09:38;;;;;;;24.80;11.33;;;;;;;18.99;71.59;101115.00;4987802;28;20300;-63
2022/11/14 09:12:22;;;;;;;23.60;11.20;;;;;;;19.34;67.94;101111.22;4992715;28;20306;-63
2022/11/14 09:15:07;;;;;;;26.07;12.07;;;;;;;19.90;66.38;101111.22;4998303;28;20341;-63
2022/11/14 09:17:52;;;;;;;19.70;11.17;;;;;;;19.89;64.27;101106.84;4992080;28;20332;-63
2022/11/14 09:20:36;;;;;;;20.40;10.40;;;;;;;20.07;62.89;101107.66;4983640;28;20295;-63
2022/11/14 09:23:20;;;;;;;24.13;12.07;;;;;;;20.19;63.78;101105.63;4989566;28;20260;-63
2022/11/14 09:26:06;;;;;;;17.50;10.93;;;;;;;20.02;63.99;101110.28;4987462;28;20295;-62
2022/11/14 09:28:50;;;;;;;28.13;11.87;;;;;;;20.69;62.30;101096.63;4992184;28;20360;-64
2022/11/14 09:31:34;;;;;;;24.37;10.67;;;;;;;21.16;60.10;101093.25;4988515;28;20068;-63
2022/11/14 09:34:18;;;;;;;19.53;10.47;;;;;;;20.85;60.48;101090.25;4988739;28;20042;-64
2022/11/14 09:37:04;;;;;;;20.90;10.43;;;;;;;21.75;58.79;101079.75;4989345;28;20098;-63
2022/11/14 09:39:48;;;;;;;16.33;9.17;;;;;;;21.11;58.86;101078.78;4991885;28;20037;-64
2022/11/14 09:42:59;;;;;;;14.50;8.57;;;;;;;21.85;57.83;101078.97;4988699;28;20045;-63
2022/11/14 09:45:49;;;;;;;19.90;9.03;;;;;;;21.79;58.01;101078.13;4986280;28;20075;-64
2022/11/14 09:48:35;;;;;;;18.20;8.33;;;;;;;21.51;57.01;101080.13;4988702;28;20042;-64
2022/11/14 09:51:22;;;;;;;18.80;8.73;;;;;;;21.97;56.51;101084.19;4989375;28;20044;-64
2022/11/14 09:54:25;;;;;;;11.95;7.72;;;;;;;22.31;54.24;101091.91;4987599;28;20073;-64
2022/11/14 09:57:19;;;;;;;14.83;9.00;;;;;;;20.90;56.73;101095.75;4988605;28;20131;-66
2022/11/14 10:00:15;;;;;;;14.90;8.30;;;;;;;22.00;55.54;101089.09;4989890;28;20042;-64
2022/11/14 10:03:21;;;;;;;15.13;8.47;;;;;;;22.32;54.22;101093.53;4988922;28;20065;-64
2022/11/14 10:06:25;;;;;;;15.67;9.00;;;;;;;22.18;53.75;101085.91;4982695;28;20045;-65
2022/11/14 10:09:31;;;;;;;15.90;8.53;;;;;;;23.82;50.12;101079.03;4988367;28;20056;-64
2022/11/14 10:12:53;;;;;;;17.43;8.90;;;;;;;23.85;49.68;101084.75;4987275;28;20088;-66
2022/11/14 10:16:02;;;;;;;19.40;9.70;;;;;;;24.28;48.84;101080.75;4989468;28;20041;-64
2022/11/14 10:19:19;;;;;;;16.73;9.75;;;;;;;24.97;47.78;101080.81;4980057;28;20065;-64
2022/11/14 10:22:33;;;;;;;16.80;9.23;;;;;;;25.30;44.94;101089.25;4984116;28;20054;-64
2022/11/14 10:25:55;;;;;;;17.13;10.07;;;;;;;24.36;47.22;101074.69;4985985;28;20050;-65
2022/11/14 10:28:57;;;;;;;19.43;9.80;;;;;;;24.33;48.00;101072.53;4985302;28;20038;-64
2022/11/14 10:31:54;;;;;;;14.00;8.90;;;;;;;23.60;47.82;101075.56;4982847;28;20081;-65
2022/11/14 10:34:48;;;;;;;14.07;9.10;;;;;;;23.23;49.11;101070.47;4986933;28;20065;-64
2022/11/14 10:37:59;;;;;;;15.07;9.70;;;;;;;22.95;49.99;101065.28;4987123;28;20054;-65
2022/11/14 10:40:47;;;;;;;15.50;9.73;;;;;;;23.32;49.22;101066.91;4986781;28;20080;-65
2022/11/14 10:43:48;;;;;;;14.40;9.07;;;;;;;23.12;49.37;101064.19;4986426;28;20053;-65
2022/11/14 10:46:37;;;;;;;15.07;9.93;;;;;;;23.26;49.38;101056.28;4994053;28;20085;-64
2022/11/14 10:49:24;;;;;;;15.10;9.43;;;;;;;24.65;46.95;101051.25;4985374;28;20081;-65
2022/11/14 10:52:13;;;;;;;;;;;;;;;25.12;45.81;101059.88;4987634;28;20053;-65
2022/11/14 10:55:06;;;;;;;18.80;9.90;;;;;;;24.85;45.98;101058.50;4983165;28;19996;-65
2022/11/14 10:57:52;;;;;;;14.10;9.27;;;;;;;24.63;46.21;101052.38;4980694;28;20055;-64
2022/11/14 11:00:36;;;;;;;15.93;9.67;;;;;;;24.18;46.95;101046.91;4984356;28;20045;-64
2022/11/14 11:03:39;;;;;;;15.87;9.73;;;;;;;23.26;48.36;101039.91;4993492;28;20077;-65
2022/11/14 11:06:25;;;;;;;15.47;9.67;;;;;;;24.31;46.90;101036.47;4991375;28;20069;-65
2022/11/14 11:12:47;;;;;;;14.87;9.33;;;;;;;23.96;48.20;101032.81;4987531;28;20057;-65
2022/11/14 11:15:39;;;;;;;16.13;9.47;;;;;;;23.47;47.54;101022.41;4986014;28;20104;-65
2022/11/14 11:18:32;;;;;;;14.07;9.47;;;;;;;23.74;47.62;101023.91;4997723;28;20089;-65
2022/11/14 11:21:22;;;;;;;23.30;9.90;;;;;;;23.20;48.80;101014.53;4988350;28;20046;-65
2022/11/14 11:24:08;;;;;;;17.03;10.20;;;;;;;22.44;49.96;101015.13;4988589;28;20089;-65
2022/11/14 11:27:11;;;;;;;19.03;10.20;;;;;;;24.65;48.62;101021.19;4986419;28;20049;-64
2022/11/14 11:30:06;;;;;;;16.43;10.30;;;;;;;32.89;32.97;101034.28;4989909;28;20047;-65
2022/11/14 11:32:50;;;;;;;15.97;10.03;;;;;;;28.74;37.40;101017.94;4986908;28;20053;-65
2022/11/14 11:35:34;;;;;;;20.70;10.63;;;;;;;27.95;38.15;101009.09;4990373;28;20121;-65
2022/11/14 11:38:18;;;;;;;14.33;9.73;;;;;;;26.31;41.10;101009.16;4979985;28;20078;-65
2022/11/14 11:41:21;;;;;;;16.30;11.17;;;;;;;24.02;44.03;100997.03;4991209;28;20272;-64
2022/11/14 11:44:11;;;;;;;16.00;10.60;;;;;;;25.95;43.41;100990.47;4984323;28;20129;-65
2022/11/14 11:47:00;;;;;;;19.13;11.20;;;;;;;25.53;43.57;100992.97;4986482;28;20106;-65
2022/11/14 11:49:50;;;;;;;17.63;10.90;;;;;;;25.09;43.54;100992.06;4983861;28;20034;-64
2022/11/14 11:52:47;;;;;;;20.17;12.13;;;;;;;25.34;44.25;100996.44;4984500;28;20053;-64
2022/11/14 11:55:33;;;;;;;17.07;11.17;;;;;;;27.54;41.22;100997.09;4985841;28;20068;-65
2022/11/14 11:58:41;;;;;;;23.10;12.27;;;;;;;26.86;39.82;101007.72;4986365;28;20329;-65
2022/11/14 12:01:25;;;;;;;19.00;11.55;;;;;;;25.67;43.23;100999.34;4992390;28;20046;-64
2022/11/14 12:04:10;;;;;;;20.13;12.47;;;;;;;27.34;41.12;100998.31;4987361;28;20056;-63
2022/11/14 12:07:11;;;;;;;20.60;13.03;;;;;;;26.54;41.72;101004.66;4986532;28;20054;-64
2022/11/14 12:09:57;;;;;;;25.87;16.23;;;;;;;24.21;45.72;100993.63;4985582;28;20050;-64
2022/11/14 12:12:53;;;;;;;43.20;21.93;;;;;;;22.74;49.57;100996.34;4988307;28;20046;-63
2022/11/14 12:15:56;;;;;;;55.40;23.47;;;;;;;19.31;63.97;100982.38;4987174;28;20050;-64
2022/11/14 12:18:52;;;;;;;38.90;23.67;;;;;;;18.57;75.30;100984.28;4988930;28;20038;-62
2022/11/14 12:22:02;;;;;;;41.73;25.03;;;;;;;18.17;81.47;100991.41;4990188;28;20057;-62
2022/11/14 12:25:17;;;;;;;48.27;25.50;;;;;;;17.92;84.29;100989.84;4988263;28;20057;-62
2022/11/14 12:28:40;;;;;;;50.53;26.87;;;;;;;17.69;89.93;100981.81;4987285;28;20273;-62
2022/11/14 12:31:32;;;;;;;45.33;25.77;;;;;;;17.66;90.99;100977.72;4988674;28;20272;-63
2022/11/14 12:34:36;;;;;;;54.03;28.03;;;;;;;17.20;93.22;100988.38;4987848;28;20272;-62
2022/11/14 12:37:33;;;;;;;50.33;27.77;;;;;;;16.75;100.00;100990.56;4990579;28;20289;-64
2022/11/14 12:40:36;;;;;;;49.17;28.00;;;;;;;18.14;93.42;100994.63;4989010;28;20404;-62